Metar Cercanos

 

LEPA - Palma De Mallorc, Spain
Distance from station: ONO 38km
Actualización: 21/05/2018 14:00
Parcialmente nuboso
Parcialmente nuboso
 Viento del OSO
Viento: OSO 22 km/h
Temperatura: 20°C
Rocío: 15°C
Humedad: 73%
Barómetro: 1011 hPa
Clouds: Parcialmente nuboso
Visibility: 10 km
Cloud details: Few Clouds 610 m
Few Clouds 914 m
Parcialmente nuboso 1372 m
2018/05/21 12:00 LEPA 211200Z 24012KT 9999 FEW020 FEW030TCU SCT045 20/15 Q1011 NOSIG
LEMH - Mahon/Menorca Is, Spain
Distance from station: ENE 105km
Actualización: 21/05/2018 14:30
Few Clouds
Few Clouds
 Viento del NNO
Viento: NNO 13 km/h
Temperatura: 17°C
Rocío: 13°C
Humedad: 77%
Barómetro: 1011 hPa
Clouds: Few Clouds
Visibility: 10 km
Cloud details: Few Clouds 671 m
2018/05/21 12:30 LEMH 211230Z 34007KT 300V010 9999 FEW022TCU 17/13 Q1011
 
LEIB - Ibiza/Es Codola, Spain
Distance from station: OSO 165km
Actualización: 21/05/2018 14:30
Few Clouds
Few Clouds
 Viento del SO
Viento: SO 20 km/h
Temperatura: 21°C
Rocío: 14°C
Humedad: 64%
Barómetro: 1012 hPa
Clouds: Few Clouds
Visibility: 10 km
Cloud details: Few Clouds 853 m
2018/05/21 12:30 LEIB 211230Z 22011KT 190V250 9999 FEW028TCU 21/14 Q1012 NOSIG
LEBL - Barcelona Airpor, Spain
Distance from station: NNO 225km
Actualización: 21/05/2018 14:30
Few Clouds
Few Clouds
 Viento del ESE
Viento: ESE 15 km/h
Temperatura: 20°C
Rocío: 12°C
Humedad: 60%
Barómetro: 1012 hPa
Clouds: Few Clouds
Visibility: 10 km
Cloud details: Few Clouds 914 m
2018/05/21 12:30 LEBL 211230Z 12008KT 9999 FEW030 20/12 Q1012 NOSIG
 
LEVC - Valencia (civ/Mi, Spain
Distance from station: NO 188km
Actualización: 21/05/2018 14:30
Few Clouds
Few Clouds
 Viento del ESE
Viento: ESE 20 km/h
Temperatura: 24°C
Rocío: 12°C
Humedad: 47%
Barómetro: 1011 hPa
Clouds: Few Clouds
Visibility: 10 km
Cloud details: Few Clouds 1219 m
2018/05/21 12:30 LEVC 211230Z 12011KT 080V150 9999 FEW040CB 24/12 Q1011 NOSIG
LEGE - Gerona/Costa Bra, Spain
Distance from station: N 276km
Actualización: 21/05/2018 14:30
Few Clouds
Few Clouds
 Viento del N
Viento: N 4 km/h
Temperatura: 22°C
Rocío: 11°C
Humedad: 50%
Barómetro: 1011 hPa
Clouds: Few Clouds
Visibility: 10 km
Cloud details: Few Clouds 1219 m
2018/05/21 12:30 LEGE 211230Z 01002KT 9999 FEW040 22/11 Q1011
 
LEAL - Alicante/El Alte, Spain
Distance from station: OSO 344km
Actualización: 21/05/2018 14:30
Few Clouds
Few Clouds
 Viento del S
Viento: S 13 km/h
Temperatura: 23°C
Rocío: 13°C
Humedad: 53%
Barómetro: 1011 hPa
Clouds: Few Clouds
Visibility: 10 km
Cloud details: Few Clouds 610 m
2018/05/21 12:30 LEAL 211230Z 17007KT 100V240 9999 FEW020 23/13 Q1011 NOSIG
LEAM - Almeria Airport, Spain
Distance from station: SSO 56km
Actualización: 01/01/1970 01:00
NOT Current
unable to load LEAM data RC=404 Not Found
unable to load LEAM data RC=404 Not Found
 
 
LEZG - Zaragoza (mil/Ci, Spain
Distance from station: NO 431km
Actualización: 01/01/1970 01:00
NOT Current
unable to load LEZG data RC=404 Not Found
unable to load LEZG data RC=404 Not Found
 
LEMD - Madrid/Barajas, Spain
Distance from station: ONO 234km
Actualización: 21/05/2018 14:30
Parcialmente nuboso
Parcialmente nuboso
 Viento del S
Viento: S 13 km/h, Racha: 37 km/h
Temperatura: 23°C
Rocío: 8°C
Humedad: 38%
Barómetro: 1012 hPa
Clouds: Parcialmente nuboso
Visibility: 10 km
Cloud details: Few Clouds 1219 m
Parcialmente nuboso 1707 m
2018/05/21 12:30 LEMD 211230Z 17007G20KT 100V220 9999 FEW040 SCT056 23/08 Q1012 NOSIG
 
LEGR - Granada Airport, Spain
Distance from station: OSO 62km
Actualización: 21/05/2018 14:30
Parcialmente nuboso
Parcialmente nuboso
 Viento del OSO
Viento: OSO 20 km/h
Temperatura: 19°C
Rocío: 11°C
Humedad: 60%
Barómetro: 1013 hPa
Clouds: Parcialmente nuboso
Visibility: 10 km
Cloud details: Few Clouds 1067 m
Parcialmente nuboso 1372 m
2018/05/21 12:30 LEGR 211230Z 24011KT 210V270 9999 FEW035CB SCT045 19/11 Q1013
LEMG - Malaga (civ/Mil), Spain
Distance from station: OSO 227km
Actualización: 21/05/2018 14:30
Few Clouds
Few Clouds
 Viento del SE
Viento: SE 24 km/h
Temperatura: 22°C
Rocío: 14°C
Humedad: 61%
Barómetro: 1012 hPa
Clouds: Few Clouds
Visibility: 10 km
Cloud details: Few Clouds 1981 m
2018/05/21 12:30 LEMG 211230Z 13013KT 110V170 9999 FEW065 22/14 Q1012 NOSIG
 
LEZL - Sevilla (civ/Mil, Spain
Distance from station: S 318km
Actualización: 21/05/2018 14:30
Few Clouds
Few Clouds
 Viento del SO
Viento: SO 11 km/h
Temperatura: 25°C
Rocío: 13°C
Humedad: 47%
Barómetro: 1012 hPa
Clouds: Few Clouds
Visibility: 10 km
Cloud details: Few Clouds 1219 m
Few Clouds 1280 m
2018/05/21 12:30 LEZL 211230Z 23006KT 150V280 9999 FEW040 FEW042TCU 25/13 Q1012 NOSIG
LEVT - Vitoria, Spain
Distance from station: NO 226km
Actualización: 21/05/2018 14:30
Nearby thunderstorm, Muy nuboso
Nearby thunderstorm, Muy nuboso
 Viento del OSO
Viento: OSO 6 km/h
Temperatura: 24°C
Rocío: 12°C
Humedad: 47%
Barómetro: 1010 hPa
Resumen: Nearby Thunderstorm
Clouds: Muy nuboso
Visibility: 10 km
Cloud details: Muy nuboso 1067 m
2018/05/21 12:30 LEVT 211230Z 25003KT 9999 VCTS BKN035CB 24/12 Q1010
 
LEBB - Bilbao/Sondica, Spain
Distance from station: NNO 235km
Actualización: 21/05/2018 14:30
Few Clouds
Few Clouds
 Viento del ONO
Viento: ONO 24 km/h
Temperatura: 21°C
Rocío: 16°C
Humedad: 73%
Barómetro: 1010 hPa
Clouds: Few Clouds
Visibility: 10 km
Cloud details: Few Clouds 1067 m
2018/05/21 12:30 LEBB 211230Z 29013KT 250V330 9999 FEW035TCU 21/16 Q1010 NOSIG
LESO - San Sebastian/Fu, Spain
Distance from station: N 231km
Actualización: 21/05/2018 14:30
Few Clouds
Few Clouds
 Viento del N
Viento: N 11 km/h
Temperatura: 21°C
Rocío: 16°C
Humedad: 73%
Barómetro: 1010 hPa
Clouds: Few Clouds
Visibility: 10 km
Cloud details: Few Clouds 1829 m
2018/05/21 12:30 LESO 211230Z 01006KT 320V060 9999 FEW060TCU 21/16 Q1010
 
LEVD - Valladolid(Mil/C, Spain
Distance from station: ONO 239km
Actualización: 21/05/2018 14:30
Few Clouds
Few Clouds
 Viento del SSO
Viento: SSO 11 km/h
Temperatura: 21°C
Rocío: 8°C
Humedad: 43%
Barómetro: 1012 hPa
Clouds: Few Clouds
Visibility: 10 km
Cloud details: Parcialmente nuboso 1402 m
Few Clouds 1463 m
2018/05/21 12:30 LEVD 211230Z 20006KT 150V260 9999 SCT046 FEW048TCU 21/08 Q1012
LESA - Salamanca (civ/M, Spain
Distance from station: ONO 349km
Actualización: 21/05/2018 14:30
Parcialmente nuboso
Parcialmente nuboso
 Viento del O
Viento: O 13 km/h
Temperatura: 20°C
Rocío: 8°C
Humedad: 46%
Barómetro: 1012 hPa
Clouds: Parcialmente nuboso
Visibility: 10 km
Cloud details: Few Clouds 1219 m
Parcialmente nuboso 1280 m
2018/05/21 12:30 LESA 211230Z 26007KT 220V330 9999 FEW040TCU SCT042 20/08 Q1012
 
LEXJ - Santander/Paraya, Spain
Distance from station: NNO 247km
Actualización: 01/01/1970 01:00
NOT Current
unable to load LEXJ data RC=404 Not Found
unable to load LEXJ data RC=404 Not Found
 
LEAS - Asturias/Aviles, Spain
Distance from station: NO 214km
Actualización: 21/05/2018 14:30
Few Clouds
Few Clouds
 Viento del NE
Viento: NE 9 km/h
Temperatura: 17°C
Rocío: 14°C
Humedad: 83%
Barómetro: 1012 hPa
Clouds: Few Clouds
Visibility: 10 km
Cloud details: Few Clouds 305 m
2018/05/21 12:30 LEAS 211230Z 04005KT 350V100 9999 FEW010 17/14 Q1012 NOSIG
 
LECO - La Coruna/Alvedr, Spain
Distance from station: ONO 222km
Actualización: 21/05/2018 14:30
Few Clouds
Few Clouds
 Viento del NNE
Viento: NNE 17 km/h
Temperatura: 17°C
Rocío: 12°C
Humedad: 73%
Barómetro: 1011 hPa
Clouds: Few Clouds
Visibility: 10 km
Cloud details: Few Clouds 610 m
2018/05/21 12:30 LECO 211230Z 02009KT 340V070 9999 FEW020 17/12 Q1011 NOSIG
LEVX - Vigo/Peinador, Spain
Distance from station: O 214km
Actualización: 21/05/2018 14:30
Despejado
Despejado
 Viento del O
Viento: O 15 km/h
Temperatura: 18°C
Rocío: 12°C
Humedad: 68%
Barómetro: 1012 hPa
Resumen: Despejado
Visibility: greater than 10 km
2018/05/21 12:30 LEVX 211230Z 28008KT 230V010 CAVOK 18/12 Q1012 NOSIG